Time;durP1;ratioP1;P1;durP2;ratioP2;P2;SDS_P1;SDS_P2;PMS_P1;PMS_P2;Temp;Humidity;BMP_temperature;BMP_pressure;BME280_temperature;BME280_humidity;BME280_pressure;Samples;Min_cycle;Max_cycle;Signal;HPM_P1;HPM_P2
2021/05/03 00:02:02;;;;;;;1.53;1.43;;;;;;;;;;5081934;28;20238;-60
2021/05/03 00:04:28;;;;;;;2.23;1.47;;;;;;;;;;5087241;28;20626;-60
2021/05/03 00:06:54;;;;;;;2.40;1.63;;;;;;;;;;5084727;28;20176;-60
2021/05/03 00:09:20;;;;;;;1.97;1.67;;;;;;;;;;5063667;28;20603;-61
2021/05/03 00:11:46;;;;;;;1.60;1.50;;;;;;;;;;5081640;28;20504;-61
2021/05/03 00:14:12;;;;;;;1.30;1.20;;;;;;;;;;5085689;28;20248;-60
2021/05/03 00:16:38;;;;;;;4.67;1.30;;;;;;;;;;5078954;28;20182;-60
2021/05/03 00:19:04;;;;;;;1.73;1.60;;;;;;;;;;5070802;28;20229;-60
2021/05/03 00:21:30;;;;;;;1.50;1.40;;;;;;;;;;5090138;28;20532;-60
2021/05/03 00:23:57;;;;;;;1.53;1.37;;;;;;;;;;5089763;28;20635;-60
2021/05/03 00:26:23;;;;;;;2.13;1.93;;;;;;;;;;5086696;28;20228;-60
2021/05/03 00:28:49;;;;;;;7.30;2.10;;;;;;;;;;5069935;28;20233;-60
2021/05/03 00:31:15;;;;;;;1.90;1.70;;;;;;;;;;5060960;28;20586;-60
2021/05/03 00:33:42;;;;;;;2.57;1.80;;;;;;;;;;5088554;28;20207;-60
2021/05/03 00:36:08;;;;;;;1.70;1.60;;;;;;;;;;5071467;28;20274;-60
2021/05/03 00:38:34;;;;;;;1.40;1.30;;;;;;;;;;5090129;28;20597;-60
2021/05/03 00:41:01;;;;;;;1.47;1.37;;;;;;;;;;5072476;28;20505;-60
2021/05/03 00:43:27;;;;;;;2.43;1.73;;;;;;;;;;5091016;28;20183;-60
2021/05/03 00:45:53;;;;;;;1.73;1.63;;;;;;;;;;5088835;28;20172;-60
2021/05/03 00:48:19;;;;;;;2.07;1.40;;;;;;;;;;5071670;28;20186;-60
2021/05/03 00:50:46;;;;;;;1.57;1.20;;;;;;;;;;5070589;28;20211;-60
2021/05/03 00:53:12;;;;;;;1.40;1.30;;;;;;;;;;5090158;28;20194;-60
2021/05/03 00:55:38;;;;;;;1.37;1.27;;;;;;;;;;5087892;28;20207;-60
2021/05/03 00:58:05;;;;;;;1.50;1.40;;;;;;;;;;5089903;28;20199;-60
2021/05/03 01:00:31;;;;;;;1.80;1.70;;;;;;;;;;5088695;28;20258;-60
2021/05/03 01:02:58;;;;;;;1.77;1.40;;;;;;;;;;5090375;28;20198;-60
2021/05/03 01:05:27;;;;;;;1.50;1.40;;;;;;;;;;5086726;28;20213;-61
2021/05/03 01:07:53;;;;;;;1.50;1.40;;;;;;;;;;5090734;28;20179;-60
2021/05/03 01:10:19;;;;;;;3.37;1.43;;;;;;;;;;5089180;28;20629;-60
2021/05/03 01:12:45;;;;;;;1.97;1.87;;;;;;;;;;5072428;28;20188;-60
2021/05/03 01:15:12;;;;;;;1.57;1.47;;;;;;;;;;5084437;28;20172;-60
2021/05/03 01:17:41;;;;;;;2.33;1.47;;;;;;;;;;5089497;28;20207;-60
2021/05/03 01:20:11;;;;;;;1.80;1.70;;;;;;;;;;5089790;28;20175;-60
2021/05/03 01:22:37;;;;;;;1.53;1.43;;;;;;;;;;5090585;28;20178;-63
2021/05/03 01:25:04;;;;;;;2.47;1.83;;;;;;;;;;5079461;28;20612;-60
2021/05/03 01:27:30;;;;;;;1.50;1.40;;;;;;;;;;5083165;28;20530;-60
2021/05/03 01:29:56;;;;;;;1.83;1.50;;;;;;;;;;5082887;28;20222;-60
2021/05/03 01:32:22;;;;;;;1.50;1.40;;;;;;;;;;5052611;28;20173;-61
2021/05/03 01:34:48;;;;;;;2.13;1.83;;;;;;;;;;5089372;28;20207;-60
2021/05/03 01:37:14;;;;;;;1.90;1.70;;;;;;;;;;5088886;28;20527;-61
2021/05/03 01:39:40;;;;;;;1.73;1.63;;;;;;;;;;5071195;28;20208;-61
2021/05/03 01:42:07;;;;;;;2.07;1.87;;;;;;;;;;5087958;28;20183;-60
2021/05/03 01:44:33;;;;;;;2.10;1.83;;;;;;;;;;5065870;28;20238;-60
2021/05/03 01:46:59;;;;;;;2.07;1.83;;;;;;;;;;5080627;28;20203;-60
2021/05/03 01:49:26;;;;;;;1.97;1.50;;;;;;;;;;5090137;28;20241;-61
2021/05/03 01:51:53;;;;;;;1.60;1.43;;;;;;;;;;5089795;28;20731;-61
2021/05/03 01:54:20;;;;;;;1.73;1.63;;;;;;;;;;5087695;28;20178;-61
2021/05/03 01:56:46;;;;;;;2.13;1.80;;;;;;;;;;5089009;28;20198;-60
2021/05/03 01:59:12;;;;;;;1.87;1.67;;;;;;;;;;5077124;28;20280;-60
2021/05/03 02:01:39;;;;;;;2.13;1.50;;;;;;;;;;5079922;28;20187;-60
2021/05/03 02:04:06;;;;;;;1.60;1.50;;;;;;;;;;5074530;28;20191;-60
2021/05/03 02:06:32;;;;;;;2.20;1.50;;;;;;;;;;5063842;28;20213;-60
2021/05/03 02:08:58;;;;;;;2.03;1.70;;;;;;;;;;5092989;28;21205;-60
2021/05/03 02:11:24;;;;;;;1.80;1.50;;;;;;;;;;5087949;28;20693;-60
2021/05/03 02:13:50;;;;;;;1.67;1.57;;;;;;;;;;5085562;28;20646;-60
2021/05/03 02:16:16;;;;;;;1.73;1.63;;;;;;;;;;5086002;28;20238;-60
2021/05/03 02:18:42;;;;;;;1.83;1.73;;;;;;;;;;5072725;28;20254;-60
2021/05/03 02:21:08;;;;;;;1.77;1.50;;;;;;;;;;5075085;28;20180;-60
2021/05/03 02:23:34;;;;;;;2.37;2.13;;;;;;;;;;5093460;28;20179;-61
2021/05/03 02:26:00;;;;;;;3.57;1.87;;;;;;;;;;5087339;28;20518;-60
2021/05/03 02:28:26;;;;;;;2.73;2.53;;;;;;;;;;5089380;28;20193;-60
2021/05/03 02:30:52;;;;;;;1.70;1.50;;;;;;;;;;5083171;28;20188;-60
2021/05/03 02:33:18;;;;;;;2.20;2.00;;;;;;;;;;5073582;28;20191;-61
2021/05/03 02:35:45;;;;;;;2.23;1.93;;;;;;;;;;5090231;28;20250;-62
2021/05/03 02:38:12;;;;;;;1.80;1.70;;;;;;;;;;5093595;28;20208;-60
2021/05/03 02:40:38;;;;;;;2.70;1.80;;;;;;;;;;5092492;28;20171;-61
2021/05/03 02:43:05;;;;;;;1.67;1.40;;;;;;;;;;5066645;28;20191;-60
2021/05/03 02:45:31;;;;;;;2.30;2.10;;;;;;;;;;5085216;28;20176;-60
2021/05/03 02:47:58;;;;;;;1.93;1.80;;;;;;;;;;5093265;28;20187;-60
2021/05/03 02:50:24;;;;;;;2.00;1.50;;;;;;;;;;5074039;28;20210;-62
2021/05/03 02:52:50;;;;;;;2.60;1.80;;;;;;;;;;5074700;28;20187;-60
2021/05/03 02:55:17;;;;;;;1.73;1.58;;;;;;;;;;5082694;28;20422;-60
2021/05/03 02:57:44;;;;;;;2.07;1.70;;;;;;;;;;5073069;28;20193;-63
2021/05/03 03:00:13;;;;;;;2.30;1.67;;;;;;;;;;5072355;28;20187;-60
2021/05/03 03:02:39;;;;;;;2.57;1.80;;;;;;;;;;5091915;28;20192;-62
2021/05/03 03:05:05;;;;;;;2.30;1.93;;;;;;;;;;5087676;28;20616;-60
2021/05/03 03:07:31;;;;;;;1.77;1.67;;;;;;;;;;5070832;28;20612;-60
2021/05/03 03:09:57;;;;;;;1.90;1.47;;;;;;;;;;5091630;28;20179;-60
2021/05/03 03:12:24;;;;;;;1.87;1.73;;;;;;;;;;5068735;28;20222;-59
2021/05/03 03:14:50;;;;;;;2.50;2.00;;;;;;;;;;5073304;28;20188;-60
2021/05/03 03:17:16;;;;;;;1.90;1.70;;;;;;;;;;5077488;28;20611;-60
2021/05/03 03:19:42;;;;;;;2.33;1.73;;;;;;;;;;5091053;28;20231;-60
2021/05/03 03:22:09;;;;;;;2.47;2.27;;;;;;;;;;5073522;28;20183;-60
2021/05/03 03:24:35;;;;;;;1.70;1.60;;;;;;;;;;5090457;28;20539;-60
2021/05/03 03:27:02;;;;;;;2.03;1.83;;;;;;;;;;5091646;28;20541;-60
2021/05/03 03:29:28;;;;;;;1.73;1.53;;;;;;;;;;5067929;28;20266;-60
2021/05/03 03:31:54;;;;;;;2.77;2.17;;;;;;;;;;5073554;28;20662;-61
2021/05/03 03:34:20;;;;;;;2.27;2.07;;;;;;;;;;5072628;28;20203;-60
2021/05/03 03:36:47;;;;;;;2.20;2.00;;;;;;;;;;5083320;28;20254;-60
2021/05/03 03:39:13;;;;;;;3.47;1.80;;;;;;;;;;5082225;28;20210;-60
2021/05/03 03:41:39;;;;;;;2.03;1.83;;;;;;;;;;5088746;28;20549;-60
2021/05/03 03:44:05;;;;;;;3.10;2.03;;;;;;;;;;5082562;28;20191;-60
2021/05/03 03:46:32;;;;;;;2.33;1.97;;;;;;;;;;5086179;28;20195;-60
2021/05/03 03:48:58;;;;;;;2.23;2.03;;;;;;;;;;5067975;28;20230;-60
2021/05/03 03:51:24;;;;;;;2.30;2.10;;;;;;;;;;5091681;28;20180;-60
2021/05/03 03:53:50;;;;;;;3.37;2.60;;;;;;;;;;5087969;28;20201;-61
2021/05/03 03:56:17;;;;;;;2.33;2.00;;;;;;;;;;5082878;28;20254;-61
2021/05/03 03:58:44;;;;;;;2.43;2.20;;;;;;;;;;5090707;28;20311;-60
2021/05/03 04:01:11;;;;;;;2.37;2.10;;;;;;;;;;5072086;28;20183;-61
2021/05/03 04:03:48;;;;;;;2.60;1.90;;;;;;;;;;5090332;28;20180;-60
2021/05/03 04:06:26;;;;;;;2.30;2.10;;;;;;;;;;5088940;28;20182;-60
2021/05/03 04:09:24;;;;;;;2.10;1.90;;;;;;;;;;5087963;28;20589;-60
2021/05/03 04:14:26;;;;;;;2.40;2.20;;;;;;;;;;5074582;28;20196;-60
2021/05/03 04:25:07;;;;;;;2.37;2.17;;;;;;;;;;5090054;28;20236;-60
2021/05/03 04:27:35;;;;;;;4.33;1.93;;;;;;;;;;5070872;28;20172;-60
2021/05/03 04:30:01;;;;;;;4.13;2.53;;;;;;;;;;5087863;28;20168;-60
2021/05/03 04:32:27;;;;;;;2.60;2.17;;;;;;;;;;5054926;28;20613;-60
2021/05/03 04:34:53;;;;;;;2.47;2.00;;;;;;;;;;5087169;28;20211;-60
2021/05/03 04:37:19;;;;;;;4.67;2.67;;;;;;;;;;5088476;28;21670;-60
2021/05/03 04:39:45;;;;;;;2.43;2.07;;;;;;;;;;5064406;28;20254;-62
2021/05/03 04:42:11;;;;;;;2.37;2.17;;;;;;;;;;5085811;28;20191;-60
2021/05/03 04:44:37;;;;;;;3.83;2.53;;;;;;;;;;5088363;28;20179;-60
2021/05/03 04:47:03;;;;;;;2.80;2.50;;;;;;;;;;5079387;28;20598;-60
2021/05/03 04:49:29;;;;;;;2.10;1.80;;;;;;;;;;5074879;28;20685;-60
2021/05/03 04:51:55;;;;;;;3.00;2.40;;;;;;;;;;5071193;28;20630;-60
2021/05/03 04:54:21;;;;;;;2.40;2.20;;;;;;;;;;5081207;28;20179;-61
2021/05/03 04:56:47;;;;;;;2.40;2.20;;;;;;;;;;5074416;28;20760;-60
2021/05/03 04:59:13;;;;;;;2.67;2.47;;;;;;;;;;5081121;28;20211;-60
2021/05/03 05:01:39;;;;;;;2.33;2.13;;;;;;;;;;5081517;28;20172;-60
2021/05/03 05:04:05;;;;;;;3.50;2.60;;;;;;;;;;5068413;28;20184;-60
2021/05/03 05:06:31;;;;;;;2.67;2.30;;;;;;;;;;5086544;28;20198;-60
2021/05/03 05:08:57;;;;;;;2.60;2.30;;;;;;;;;;5089215;28;20609;-60
2021/05/03 05:11:23;;;;;;;3.00;2.70;;;;;;;;;;5070141;28;20414;-60
2021/05/03 05:13:49;;;;;;;2.53;2.10;;;;;;;;;;5070255;28;20183;-60
2021/05/03 05:16:15;;;;;;;3.87;2.57;;;;;;;;;;5069760;28;20202;-61
2021/05/03 05:18:41;;;;;;;2.60;2.40;;;;;;;;;;5089396;28;20196;-60
2021/05/03 05:21:07;;;;;;;3.73;2.60;;;;;;;;;;5089294;28;20183;-60
2021/05/03 05:23:34;;;;;;;3.93;2.90;;;;;;;;;;5084182;28;20175;-60
2021/05/03 05:26:00;;;;;;;3.60;2.53;;;;;;;;;;5073754;28;20191;-60
2021/05/03 05:28:26;;;;;;;3.07;2.77;;;;;;;;;;5058933;28;20188;-60
2021/05/03 05:30:52;;;;;;;3.43;2.73;;;;;;;;;;5087654;28;20180;-60
2021/05/03 05:33:18;;;;;;;2.87;2.57;;;;;;;;;;5068089;28;20176;-60
2021/05/03 05:35:44;;;;;;;3.70;2.73;;;;;;;;;;5089522;28;20219;-60
2021/05/03 05:38:10;;;;;;;3.00;2.80;;;;;;;;;;5074589;28;20228;-60
2021/05/03 05:40:36;;;;;;;4.60;2.83;;;;;;;;;;5086555;28;20446;-60
2021/05/03 05:43:05;;;;;;;2.83;2.60;;;;;;;;;;5092814;28;20620;-60
2021/05/03 05:45:31;;;;;;;3.67;2.83;;;;;;;;;;5072894;28;20282;-60
2021/05/03 05:47:57;;;;;;;2.80;2.50;;;;;;;;;;5060693;28;20220;-61
2021/05/03 05:50:23;;;;;;;3.87;3.13;;;;;;;;;;5094090;28;20202;-60
2021/05/03 05:52:49;;;;;;;4.80;3.33;;;;;;;;;;5082542;28;20540;-60
2021/05/03 05:55:15;;;;;;;3.50;2.77;;;;;;;;;;5061203;28;20176;-60
2021/05/03 05:57:41;;;;;;;4.47;3.07;;;;;;;;;;5081016;28;20195;-61
2021/05/03 06:00:08;;;;;;;4.97;2.97;;;;;;;;;;5058268;28;20176;-60
2021/05/03 06:02:34;;;;;;;3.70;2.90;;;;;;;;;;5062482;28;20172;-60
2021/05/03 06:05:00;;;;;;;5.40;3.40;;;;;;;;;;5086593;28;20565;-60
2021/05/03 06:07:26;;;;;;;4.07;2.77;;;;;;;;;;5061075;28;20313;-60
2021/05/03 06:09:52;;;;;;;6.57;3.43;;;;;;;;;;5081699;28;20184;-61
2021/05/03 06:12:18;;;;;;;4.17;3.03;;;;;;;;;;5078225;28;20512;-60
2021/05/03 06:14:44;;;;;;;3.67;3.37;;;;;;;;;;5082436;28;20180;-59
2021/05/03 06:17:10;;;;;;;3.97;3.50;;;;;;;;;;5064522;28;20173;-60
2021/05/03 06:19:36;;;;;;;6.80;3.30;;;;;;;;;;5062877;28;20556;-60
2021/05/03 06:22:02;;;;;;;3.63;3.27;;;;;;;;;;5092730;28;20674;-60
2021/05/03 06:24:28;;;;;;;5.00;3.57;;;;;;;;;;5081514;28;20176;-60
2021/05/03 06:26:54;;;;;;;5.20;3.40;;;;;;;;;;5091369;28;20260;-60
2021/05/03 06:29:20;;;;;;;3.83;3.17;;;;;;;;;;5073371;28;20701;-60
2021/05/03 06:31:47;;;;;;;3.80;3.50;;;;;;;;;;5093302;28;20164;-60
2021/05/03 06:34:13;;;;;;;4.83;3.90;;;;;;;;;;5091449;28;20220;-60
2021/05/03 06:36:39;;;;;;;6.50;3.50;;;;;;;;;;5072486;28;20172;-60
2021/05/03 06:39:05;;;;;;;3.80;3.40;;;;;;;;;;5056975;28;20210;-60
2021/05/03 06:41:31;;;;;;;7.33;4.03;;;;;;;;;;5053921;28;20196;-59
2021/05/03 06:43:57;;;;;;;5.97;4.03;;;;;;;;;;5085158;28;20566;-60
2021/05/03 06:46:23;;;;;;;4.43;3.63;;;;;;;;;;5073222;28;20188;-60
2021/05/03 06:48:49;;;;;;;4.17;3.70;;;;;;;;;;5057831;28;20211;-59
2021/05/03 06:51:15;;;;;;;5.30;3.60;;;;;;;;;;5092298;28;20237;-59
2021/05/03 06:53:41;;;;;;;5.47;4.00;;;;;;;;;;5081402;28;20423;-60
2021/05/03 06:56:07;;;;;;;6.20;4.00;;;;;;;;;;5090666;28;20422;-60
2021/05/03 06:58:33;;;;;;;6.60;3.93;;;;;;;;;;5072728;28;20678;-60
2021/05/03 07:00:59;;;;;;;3.80;3.30;;;;;;;;;;5065119;28;20191;-60
2021/05/03 07:03:25;;;;;;;5.20;3.93;;;;;;;;;;5076961;28;20183;-60
2021/05/03 07:05:51;;;;;;;4.73;3.60;;;;;;;;;;5072580;28;20180;-60
2021/05/03 07:08:22;;;;;;;5.27;4.40;;;;;;;;;;5074530;28;20180;-60
2021/05/03 07:10:48;;;;;;;4.83;3.53;;;;;;;;;;5072698;28;20215;-61
2021/05/03 07:13:14;;;;;;;4.50;3.77;;;;;;;;;;5092709;28;20179;-60
2021/05/03 07:15:41;;;;;;;4.57;3.80;;;;;;;;;;5074092;28;20172;-60
2021/05/03 07:18:07;;;;;;;6.77;3.87;;;;;;;;;;5090201;28;20195;-60
2021/05/03 07:20:33;;;;;;;4.20;3.80;;;;;;;;;;5067316;28;20184;-62
2021/05/03 07:22:59;;;;;;;5.20;3.77;;;;;;;;;;5082261;28;20187;-60
2021/05/03 07:25:25;;;;;;;4.90;3.43;;;;;;;;;;5085590;28;20898;-60
2021/05/03 07:27:51;;;;;;;4.07;3.67;;;;;;;;;;5078935;28;20183;-60
2021/05/03 07:30:18;;;;;;;6.20;4.27;;;;;;;;;;5080775;28;20540;-60
2021/05/03 07:32:44;;;;;;;4.87;4.17;;;;;;;;;;5076765;28;20608;-60
2021/05/03 07:35:11;;;;;;;6.43;4.50;;;;;;;;;;5061537;28;20216;-60
2021/05/03 07:37:37;;;;;;;5.00;3.83;;;;;;;;;;5087604;28;20221;-60
2021/05/03 07:40:04;;;;;;;5.07;4.53;;;;;;;;;;5090014;28;20176;-60
2021/05/03 07:42:30;;;;;;;5.60;3.70;;;;;;;;;;5077436;28;20176;-60
2021/05/03 07:44:56;;;;;;;5.13;3.70;;;;;;;;;;5082120;28;20176;-60
2021/05/03 07:47:24;;;;;;;4.27;3.87;;;;;;;;;;5080171;28;20183;-60
2021/05/03 07:49:50;;;;;;;7.00;4.60;;;;;;;;;;5090707;28;20286;-60
2021/05/03 07:52:16;;;;;;;5.03;3.73;;;;;;;;;;5091027;28;20244;-60
2021/05/03 07:54:42;;;;;;;3.43;3.13;;;;;;;;;;5063569;28;20184;-60
2021/05/03 07:57:08;;;;;;;4.90;3.60;;;;;;;;;;5060296;28;20200;-61
2021/05/03 07:59:34;;;;;;;4.53;3.23;;;;;;;;;;5082347;28;20199;-60
2021/05/03 08:02:00;;;;;;;4.10;3.70;;;;;;;;;;5070650;28;20182;-60
2021/05/03 08:04:27;;;;;;;4.20;3.80;;;;;;;;;;5072077;28;20172;-60
2021/05/03 08:06:56;;;;;;;7.10;4.17;;;;;;;;;;5090364;28;20571;-60
2021/05/03 08:09:22;;;;;;;4.40;3.83;;;;;;;;;;5078349;28;20677;-62
2021/05/03 08:11:49;;;;;;;5.30;4.20;;;;;;;;;;5054492;28;20671;-60
2021/05/03 08:14:17;;;;;;;4.20;3.70;;;;;;;;;;5064459;28;20256;-60
2021/05/03 08:16:43;;;;;;;4.00;3.60;;;;;;;;;;5074860;28;20180;-60
2021/05/03 08:19:09;;;;;;;4.97;3.67;;;;;;;;;;5090312;28;20749;-60
2021/05/03 08:21:38;;;;;;;4.60;3.10;;;;;;;;;;5090828;28;20634;-60
2021/05/03 08:24:04;;;;;;;4.83;4.17;;;;;;;;;;5088670;28;20226;-60
2021/05/03 08:26:30;;;;;;;3.63;2.90;;;;;;;;;;5071206;28;20240;-60
2021/05/03 08:28:56;;;;;;;3.57;3.27;;;;;;;;;;5056206;28;20192;-60
2021/05/03 08:31:22;;;;;;;4.97;3.53;;;;;;;;;;5072324;28;20175;-60
2021/05/03 08:33:48;;;;;;;4.63;3.20;;;;;;;;;;5071783;28;20203;-60
2021/05/03 08:36:14;;;;;;;3.90;2.90;;;;;;;;;;5090087;28;20257;-62
2021/05/03 08:38:41;;;;;;;2.87;2.63;;;;;;;;;;5071989;28;20217;-60
2021/05/03 08:41:07;;;;;;;4.07;3.37;;;;;;;;;;5066319;28;20742;-60
2021/05/03 08:43:39;;;;;;;5.87;2.97;;;;;;;;;;5090418;28;20176;-61
2021/05/03 08:46:08;;;;;;;4.10;2.90;;;;;;;;;;5080024;28;20627;-60
2021/05/03 08:48:41;;;;;;;3.23;2.87;;;;;;;;;;5072063;28;20179;-60
2021/05/03 08:53:37;;;;;;;3.33;2.77;;;;;;;;;;5081948;28;20218;-60
2021/05/03 08:56:04;;;;;;;3.93;2.87;;;;;;;;;;5071152;28;20186;-60
2021/05/03 08:58:30;;;;;;;4.97;3.10;;;;;;;;;;5089321;28;20214;-61
2021/05/03 09:00:56;;;;;;;5.03;2.97;;;;;;;;;;5070151;28;20179;-60
2021/05/03 09:03:23;;;;;;;7.77;3.30;;;;;;;;;;5083173;28;20167;-60
2021/05/03 09:05:49;;;;;;;5.17;3.43;;;;;;;;;;5083207;28;20392;-59
2021/05/03 09:08:33;;;;;;;7.03;3.13;;;;;;;;;;5089565;28;20176;-61
2021/05/03 09:10:59;;;;;;;3.80;2.90;;;;;;;;;;5088163;28;20187;-59
2021/05/03 09:13:27;;;;;;;4.00;3.00;;;;;;;;;;5089801;28;20189;-61
2021/05/03 09:16:11;;;;;;;5.60;3.90;;;;;;;;;;5071274;28;20654;-60
2021/05/03 09:18:38;;;;;;;3.57;3.27;;;;;;;;;;5071506;28;20227;-60
2021/05/03 09:21:04;;;;;;;4.50;3.67;;;;;;;;;;5087536;28;20440;-60
2021/05/03 09:23:30;;;;;;;5.33;3.20;;;;;;;;;;5074337;28;20599;-60
2021/05/03 09:25:57;;;;;;;4.23;3.53;;;;;;;;;;5065377;28;20187;-61
2021/05/03 09:28:30;;;;;;;4.13;3.57;;;;;;;;;;5070722;28;20228;-60
2021/05/03 09:30:56;;;;;;;4.40;3.60;;;;;;;;;;5078290;28;20198;-60
2021/05/03 09:33:23;;;;;;;4.10;3.70;;;;;;;;;;5085895;28;20511;-60
2021/05/03 09:35:54;;;;;;;3.40;3.10;;;;;;;;;;5087073;28;20215;-60
2021/05/03 09:38:39;;;;;;;5.33;3.97;;;;;;;;;;5069751;28;20563;-61
2021/05/03 09:41:16;;;;;;;4.33;3.33;;;;;;;;;;5070256;28;20616;-60
2021/05/03 09:43:46;;;;;;;6.13;3.97;;;;;;;;;;5075449;28;20541;-60
2021/05/03 09:46:31;;;;;;;7.53;4.50;;;;;;;;;;5069207;28;20229;-59
2021/05/03 09:48:59;;;;;;;5.27;4.03;;;;;;;;;;5069756;28;20195;-59
2021/05/03 09:51:29;;;;;;;4.37;3.97;;;;;;;;;;5069562;28;20171;-59
2021/05/03 09:54:03;;;;;;;5.07;3.87;;;;;;;;;;5040309;28;20629;-59
2021/05/03 09:56:44;;;;;;;4.50;3.80;;;;;;;;;;5078705;28;20187;-60
2021/05/03 09:59:28;;;;;;;4.33;3.93;;;;;;;;;;5078364;28;20200;-60
2021/05/03 10:02:09;;;;;;;5.03;4.00;;;;;;;;;;5089534;28;20164;-60
2021/05/03 10:04:36;;;;;;;4.13;3.70;;;;;;;;;;5074252;28;20171;-60
2021/05/03 10:07:03;;;;;;;5.00;4.10;;;;;;;;;;5088537;28;20176;-60
2021/05/03 10:09:30;;;;;;;4.57;3.40;;;;;;;;;;5070031;28;20282;-59
2021/05/03 10:11:57;;;;;;;3.53;3.23;;;;;;;;;;5088749;28;20539;-63
2021/05/03 10:14:23;;;;;;;4.50;3.73;;;;;;;;;;5085293;28;20510;-61
2021/05/03 10:16:50;;;;;;;4.00;3.60;;;;;;;;;;5070648;28;20712;-60
2021/05/03 10:19:18;;;;;;;4.43;3.30;;;;;;;;;;5086155;28;20274;-60
2021/05/03 10:21:45;;;;;;;3.87;3.33;;;;;;;;;;5089356;28;20172;-60
2021/05/03 10:24:13;;;;;;;4.83;4.10;;;;;;;;;;5083819;28;20267;-61
2021/05/03 10:26:40;;;;;;;3.53;3.23;;;;;;;;;;5060767;28;20630;-60
2021/05/03 10:29:06;;;;;;;4.13;3.30;;;;;;;;;;5086452;28;20280;-60
2021/05/03 10:31:51;;;;;;;3.23;2.93;;;;;;;;;;5091443;28;20641;-61
2021/05/03 10:34:36;;;;;;;3.30;2.87;;;;;;;;;;5091070;28;20294;-61
2021/05/03 10:37:02;;;;;;;3.43;2.73;;;;;;;;;;5066351;28;20267;-61
2021/05/03 10:39:29;;;;;;;3.83;2.97;;;;;;;;;;5082013;28;20281;-60
2021/05/03 10:42:13;;;;;;;11.30;3.53;;;;;;;;;;5077879;28;20177;-61
2021/05/03 10:44:59;;;;;;;2.87;2.67;;;;;;;;;;5087494;28;20184;-61
2021/05/03 10:47:33;;;;;;;3.10;2.80;;;;;;;;;;5086299;28;20168;-60
2021/05/03 10:49:59;;;;;;;3.03;2.77;;;;;;;;;;5063166;28;20757;-61
2021/05/03 10:52:33;;;;;;;3.67;2.63;;;;;;;;;;5075155;28;20607;-60
2021/05/03 10:54:59;;;;;;;4.20;3.13;;;;;;;;;;5072616;28;20194;-60
2021/05/03 10:57:25;;;;;;;3.07;2.77;;;;;;;;;;5091879;28;20219;-61
2021/05/03 10:59:54;;;;;;;4.40;3.30;;;;;;;;;;5091633;28;20199;-61
2021/05/03 11:02:21;;;;;;;3.13;2.83;;;;;;;;;;5087687;28;20641;-61
2021/05/03 11:05:07;;;;;;;3.80;3.27;;;;;;;;;;5063434;28;20194;-62
2021/05/03 11:07:33;;;;;;;5.87;3.47;;;;;;;;;;5060828;28;20551;-61
2021/05/03 11:10:00;;;;;;;3.50;3.20;;;;;;;;;;5090381;28;20183;-60
2021/05/03 11:12:27;;;;;;;4.23;2.97;;;;;;;;;;5073586;28;20534;-60
2021/05/03 11:15:08;;;;;;;4.13;3.83;;;;;;;;;;5087287;28;20186;-61
2021/05/03 11:17:34;;;;;;;3.30;3.00;;;;;;;;;;5091034;28;20187;-60
2021/05/03 11:22:43;;;;;;;4.50;3.50;;;;;;;;;;5074762;28;20186;-60
2021/05/03 11:25:11;;;;;;;4.10;3.38;;;;;;;;;;5055827;28;20474;-61
2021/05/03 11:27:43;;;;;;;4.23;3.73;;;;;;;;;;5081383;28;20172;-61
2021/05/03 11:30:20;;;;;;;4.03;3.00;;;;;;;;;;5090508;28;20589;-61
2021/05/03 11:32:50;;;;;;;4.03;3.10;;;;;;;;;;5090619;28;20629;-62
2021/05/03 11:38:09;;;;;;;3.30;3.00;;;;;;;;;;5091178;28;20698;-61
2021/05/03 11:46:32;;;;;;;4.03;3.40;;;;;;;;;;5073632;28;20271;-61
2021/05/03 11:49:11;;;;;;;3.73;3.03;;;;;;;;;;5057385;28;20271;-62
2021/05/03 11:51:47;;;;;;;3.57;3.27;;;;;;;;;;5077382;28;20269;-61
2021/05/03 11:54:26;;;;;;;5.57;3.67;;;;;;;;;;5088780;28;20178;-62
2021/05/03 11:57:00;;;;;;;3.43;2.90;;;;;;;;;;5082001;28;20267;-61
2021/05/03 11:59:26;;;;;;;4.17;3.10;;;;;;;;;;5074895;28;20188;-61
2021/05/03 12:02:08;;;;;;;4.53;3.60;;;;;;;;;;5062433;28;20213;-61
2021/05/03 12:04:38;;;;;;;3.23;2.90;;;;;;;;;;5083332;28;20224;-61
2021/05/03 12:07:18;;;;;;;3.50;3.20;;;;;;;;;;5088289;28;20222;-61
2021/05/03 12:09:45;;;;;;;4.47;3.43;;;;;;;;;;5072660;28;20215;-62
2021/05/03 12:12:11;;;;;;;3.50;3.20;;;;;;;;;;5091413;28;20180;-61
2021/05/03 12:14:50;;;;;;;4.30;3.17;;;;;;;;;;5086323;28;20263;-61
2021/05/03 12:17:16;;;;;;;4.57;3.77;;;;;;;;;;5084353;28;20625;-60
2021/05/03 12:19:42;;;;;;;3.60;3.30;;;;;;;;;;5080420;28;20204;-63
2021/05/03 12:22:08;;;;;;;3.27;2.97;;;;;;;;;;5073385;28;20276;-61
2021/05/03 12:24:37;;;;;;;5.73;2.90;;;;;;;;;;5090223;28;20241;-61
2021/05/03 12:27:03;;;;;;;3.60;3.27;;;;;;;;;;5090683;28;20184;-62
2021/05/03 12:29:30;;;;;;;3.07;2.77;;;;;;;;;;5089238;28;20188;-60
2021/05/03 12:31:56;;;;;;;5.47;4.13;;;;;;;;;;5090901;28;20646;-66
2021/05/03 12:34:24;;;;;;;4.33;3.87;;;;;;;;;;5086600;28;20227;-62
2021/05/03 12:37:04;;;;;;;6.30;4.10;;;;;;;;;;5091460;28;20531;-61
2021/05/03 12:39:30;;;;;;;5.57;4.33;;;;;;;;;;5090189;28;20250;-64
2021/05/03 12:41:56;;;;;;;8.30;4.57;;;;;;;;;;5072720;28;20715;-63
2021/05/03 12:44:25;;;;;;;3.80;3.50;;;;;;;;;;5090073;28;20262;-62
2021/05/03 12:46:51;;;;;;;5.77;3.87;;;;;;;;;;5079784;28;20521;-60
2021/05/03 12:49:28;;;;;;;3.90;3.50;;;;;;;;;;5059095;28;20226;-62
2021/05/03 12:52:08;;;;;;;4.40;4.00;;;;;;;;;;5083556;28;20270;-65
2021/05/03 12:57:26;;;;;;;4.87;3.77;;;;;;;;;;5075606;28;20299;-59
2021/05/03 13:00:04;;;;;;;3.90;3.50;;;;;;;;;;5074452;28;20301;-62
2021/05/03 13:05:37;;;;;;;6.50;4.47;;;;;;;;;;5068996;28;20195;-61
2021/05/03 13:25:17;;;;;;;26.43;7.17;;;;;;;;;;5080763;28;20206;-61
2021/05/03 13:30:02;;;;;;;5.30;4.47;;;;;;;;;;5089080;28;20183;-63
2021/05/03 13:32:30;;;;;;;5.13;4.60;;;;;;;;;;5079466;28;20177;-60
2021/05/03 13:34:57;;;;;;;6.83;4.57;;;;;;;;;;5061150;28;20218;-61
2021/05/03 13:37:23;;;;;;;4.10;3.63;;;;;;;;;;5089117;28;20533;-61
2021/05/03 13:39:49;;;;;;;6.47;4.07;;;;;;;;;;5088338;28;20215;-63
2021/05/03 13:42:16;;;;;;;4.10;3.70;;;;;;;;;;5086946;28;20172;-62
2021/05/03 13:44:42;;;;;;;4.67;4.13;;;;;;;;;;5084426;28;20184;-62
2021/05/03 13:47:08;;;;;;;4.40;4.00;;;;;;;;;;5079351;28;20214;-62
2021/05/03 13:49:34;;;;;;;4.07;3.70;;;;;;;;;;5074640;28;20188;-63
2021/05/03 13:52:01;;;;;;;4.63;3.80;;;;;;;;;;5066039;28;20187;-64
2021/05/03 13:54:27;;;;;;;7.47;3.97;;;;;;;;;;5077736;28;20172;-64
2021/05/03 13:56:57;;;;;;;9.02;4.30;;;;;;;;;;5085202;28;20424;-66
2021/05/03 13:59:24;;;;;;;6.33;4.50;;;;;;;;;;5086309;28;20202;-65
2021/05/03 14:01:50;;;;;;;4.57;3.77;;;;;;;;;;5084078;28;20185;-65
2021/05/03 14:04:16;;;;;;;5.07;3.93;;;;;;;;;;5067761;28;20179;-66
2021/05/03 14:06:42;;;;;;;4.00;3.60;;;;;;;;;;5064080;28;20187;-66
2021/05/03 14:09:08;;;;;;;4.60;3.80;;;;;;;;;;5088109;28;20175;-65
2021/05/03 14:11:34;;;;;;;5.73;3.50;;;;;;;;;;5067504;28;20218;-65
2021/05/03 14:14:00;;;;;;;4.13;3.30;;;;;;;;;;5093507;28;20188;-65
2021/05/03 14:16:26;;;;;;;3.80;3.23;;;;;;;;;;5070271;28;20194;-65
2021/05/03 14:18:52;;;;;;;4.35;3.95;;;;;;;;;;5087858;28;20428;-65
2021/05/03 14:21:21;;;;;;;5.73;3.70;;;;;;;;;;5093566;28;20618;-65
2021/05/03 14:23:47;;;;;;;3.67;3.37;;;;;;;;;;5088788;28;20172;-66
2021/05/03 14:26:16;;;;;;;4.87;3.33;;;;;;;;;;5070367;28;20688;-65
2021/05/03 14:28:50;;;;;;;5.27;4.17;;;;;;;;;;5079323;28;20542;-66
2021/05/03 14:31:22;;;;;;;4.13;3.70;;;;;;;;;;5073255;28;20180;-67
2021/05/03 14:34:05;;;;;;;6.43;3.77;;;;;;;;;;5071983;28;20611;-66
2021/05/03 14:36:32;;;;;;;4.43;3.67;;;;;;;;;;5085488;28;20174;-65
2021/05/03 14:38:58;;;;;;;4.20;3.63;;;;;;;;;;5071847;28;20563;-63
2021/05/03 14:41:24;;;;;;;3.50;3.20;;;;;;;;;;5071492;28;20184;-62
2021/05/03 14:43:50;;;;;;;3.93;3.63;;;;;;;;;;5092292;28;20191;-60
2021/05/03 14:46:28;;;;;;;3.77;3.47;;;;;;;;;;5081239;28;20606;-61
2021/05/03 14:56:30;;;;;;;3.60;3.20;;;;;;;;;;5089357;28;20531;-62
2021/05/03 14:58:58;;;;;;;4.50;3.13;;;;;;;;;;5091784;28;20203;-63
2021/05/03 15:01:24;;;;;;;4.40;3.30;;;;;;;;;;5092091;28;20176;-61
2021/05/03 15:03:50;;;;;;;3.30;3.00;;;;;;;;;;5092078;28;20180;-63
2021/05/03 15:06:18;;;;;;;3.60;3.07;;;;;;;;;;5091486;28;20695;-62
2021/05/03 15:08:44;;;;;;;7.07;4.30;;;;;;;;;;5089592;28;20203;-61
2021/05/03 15:11:10;;;;;;;5.57;3.73;;;;;;;;;;5076088;28;20215;-61
2021/05/03 15:13:41;;;;;;;3.30;3.00;;;;;;;;;;5087840;28;20180;-62
2021/05/03 15:16:19;;;;;;;3.47;2.97;;;;;;;;;;5081976;28;20529;-66
2021/05/03 15:21:34;;;;;;;4.70;3.40;;;;;;;;;;5085029;28;20265;-65
2021/05/03 15:24:03;;;;;;;3.30;3.00;;;;;;;;;;5082197;28;20188;-66
2021/05/03 15:26:31;;;;;;;4.90;2.93;;;;;;;;;;5083830;28;20275;-66
2021/05/03 15:29:20;;;;;;;3.83;3.27;;;;;;;;;;5090341;28;20188;-66
2021/05/03 15:34:12;;;;;;;3.80;3.40;;;;;;;;;;5091410;28;20248;-68
2021/05/03 15:36:39;;;;;;;3.97;3.00;;;;;;;;;;5076572;28;20539;-66
2021/05/03 15:39:08;;;;;;;4.63;3.20;;;;;;;;;;5083119;28;20272;-67
2021/05/03 15:41:35;;;;;;;3.37;2.87;;;;;;;;;;5084594;28;20185;-65
2021/05/03 15:44:02;;;;;;;3.53;2.97;;;;;;;;;;5084439;28;20184;-65
2021/05/03 15:46:28;;;;;;;4.50;2.77;;;;;;;;;;5087429;28;20172;-63
2021/05/03 15:48:55;;;;;;;4.33;2.87;;;;;;;;;;5084742;28;20185;-62
2021/05/03 15:51:21;;;;;;;2.63;2.43;;;;;;;;;;5068983;28;20614;-62